sensor_id;sensor_type;location;lat;lon;timestamp;pressure;altitude;pressure_sealevel;temperature;humidity
13209;BME280;6669;42.678;23.332;2022-12-24T00:02:13;94351.97;;;3.88;100.00
13209;BME280;6669;42.678;23.332;2022-12-24T00:04:44;94352.91;;;3.87;100.00
13209;BME280;6669;42.678;23.332;2022-12-24T00:07:13;94348.84;;;4.04;100.00
13209;BME280;6669;42.678;23.332;2022-12-24T00:09:42;94343.28;;;3.99;100.00
13209;BME280;6669;42.678;23.332;2022-12-24T00:12:10;94366.69;;;4.15;100.00
13209;BME280;6669;42.678;23.332;2022-12-24T00:14:39;94361.00;;;4.12;100.00
13209;BME280;6669;42.678;23.332;2022-12-24T00:17:10;94364.50;;;4.20;100.00
13209;BME280;6669;42.678;23.332;2022-12-24T00:19:40;94366.53;;;4.27;100.00
13209;BME280;6669;42.678;23.332;2022-12-24T00:22:10;94375.56;;;4.40;100.00
13209;BME280;6669;42.678;23.332;2022-12-24T00:24:38;94373.41;;;4.36;100.00
13209;BME280;6669;42.678;23.332;2022-12-24T00:27:07;94360.00;;;4.22;100.00
13209;BME280;6669;42.678;23.332;2022-12-24T00:29:36;94360.31;;;4.19;100.00
13209;BME280;6669;42.678;23.332;2022-12-24T00:32:04;94351.31;;;4.33;100.00
13209;BME280;6669;42.678;23.332;2022-12-24T00:34:36;94346.97;;;4.34;100.00
13209;BME280;6669;42.678;23.332;2022-12-24T00:37:06;94354.81;;;4.42;100.00
13209;BME280;6669;42.678;23.332;2022-12-24T00:39:38;94371.03;;;4.52;100.00
13209;BME280;6669;42.678;23.332;2022-12-24T00:42:06;94359.94;;;4.52;100.00
13209;BME280;6669;42.678;23.332;2022-12-24T00:44:35;94374.81;;;4.58;100.00
13209;BME280;6669;42.678;23.332;2022-12-24T00:47:03;94367.06;;;4.58;100.00
13209;BME280;6669;42.678;23.332;2022-12-24T00:49:37;94367.63;;;4.62;100.00
13209;BME280;6669;42.678;23.332;2022-12-24T00:52:07;94361.44;;;4.54;100.00
13209;BME280;6669;42.678;23.332;2022-12-24T00:54:35;94353.50;;;4.38;100.00
13209;BME280;6669;42.678;23.332;2022-12-24T00:57:04;94374.72;;;4.40;100.00
13209;BME280;6669;42.678;23.332;2022-12-24T00:59:48;94364.28;;;3.94;100.00
13209;BME280;6669;42.678;23.332;2022-12-24T01:02:17;94379.59;;;3.86;100.00
13209;BME280;6669;42.678;23.332;2022-12-24T01:04:45;94376.59;;;3.61;100.00
13209;BME280;6669;42.678;23.332;2022-12-24T01:07:33;94374.88;;;3.62;100.00
13209;BME280;6669;42.678;23.332;2022-12-24T01:10:03;94372.53;;;3.49;100.00
13209;BME280;6669;42.678;23.332;2022-12-24T01:12:33;94370.78;;;3.20;100.00
13209;BME280;6669;42.678;23.332;2022-12-24T01:15:02;94373.16;;;3.11;100.00
13209;BME280;6669;42.678;23.332;2022-12-24T01:17:31;94383.84;;;3.07;100.00
13209;BME280;6669;42.678;23.332;2022-12-24T01:19:59;94370.16;;;2.87;100.00
13209;BME280;6669;42.678;23.332;2022-12-24T01:22:32;94381.22;;;2.77;100.00
13209;BME280;6669;42.678;23.332;2022-12-24T01:25:01;94366.44;;;2.70;100.00
13209;BME280;6669;42.678;23.332;2022-12-24T01:27:29;94349.78;;;2.54;100.00
13209;BME280;6669;42.678;23.332;2022-12-24T01:29:59;94346.50;;;2.42;100.00
13209;BME280;6669;42.678;23.332;2022-12-24T01:32:28;94346.00;;;2.49;100.00
13209;BME280;6669;42.678;23.332;2022-12-24T01:34:57;94338.28;;;2.49;100.00
13209;BME280;6669;42.678;23.332;2022-12-24T01:37:26;94351.28;;;2.57;100.00
13209;BME280;6669;42.678;23.332;2022-12-24T01:39:56;94355.75;;;2.65;100.00
13209;BME280;6669;42.678;23.332;2022-12-24T01:42:59;94368.06;;;2.71;100.00
13209;BME280;6669;42.678;23.332;2022-12-24T01:45:47;94365.63;;;2.69;100.00
13209;BME280;6669;42.678;23.332;2022-12-24T01:48:34;94370.38;;;2.74;100.00
13209;BME280;6669;42.678;23.332;2022-12-24T01:51:10;94353.34;;;2.73;100.00
13209;BME280;6669;42.678;23.332;2022-12-24T01:53:45;94351.59;;;2.64;100.00
13209;BME280;6669;42.678;23.332;2022-12-24T01:56:17;94360.50;;;2.69;100.00
13209;BME280;6669;42.678;23.332;2022-12-24T01:58:52;94359.38;;;2.62;100.00
13209;BME280;6669;42.678;23.332;2022-12-24T02:01:23;94358.31;;;2.65;100.00
13209;BME280;6669;42.678;23.332;2022-12-24T02:03:51;94348.47;;;2.70;100.00
13209;BME280;6669;42.678;23.332;2022-12-24T02:06:21;94331.16;;;2.52;100.00
13209;BME280;6669;42.678;23.332;2022-12-24T02:08:52;94346.19;;;2.67;100.00
13209;BME280;6669;42.678;23.332;2022-12-24T02:11:24;94338.06;;;2.61;100.00
13209;BME280;6669;42.678;23.332;2022-12-24T02:13:56;94348.19;;;2.63;100.00
13209;BME280;6669;42.678;23.332;2022-12-24T02:16:33;94356.53;;;2.55;100.00
13209;BME280;6669;42.678;23.332;2022-12-24T02:19:21;94348.84;;;2.55;100.00
13209;BME280;6669;42.678;23.332;2022-12-24T02:21:57;94341.28;;;2.54;100.00
13209;BME280;6669;42.678;23.332;2022-12-24T02:24:43;94355.66;;;2.66;100.00
13209;BME280;6669;42.678;23.332;2022-12-24T02:27:33;94348.31;;;2.61;100.00
13209;BME280;6669;42.678;23.332;2022-12-24T02:30:17;94352.91;;;2.58;100.00
13209;BME280;6669;42.678;23.332;2022-12-24T02:35:56;94361.94;;;2.52;100.00
13209;BME280;6669;42.678;23.332;2022-12-24T02:38:29;94356.47;;;2.36;100.00
13209;BME280;6669;42.678;23.332;2022-12-24T02:41:02;94353.41;;;2.21;100.00
13209;BME280;6669;42.678;23.332;2022-12-24T02:43:37;94344.50;;;2.46;100.00
13209;BME280;6669;42.678;23.332;2022-12-24T02:46:12;94345.06;;;2.59;100.00
13209;BME280;6669;42.678;23.332;2022-12-24T02:48:44;94346.19;;;2.67;100.00
13209;BME280;6669;42.678;23.332;2022-12-24T02:51:14;94345.38;;;2.76;100.00
13209;BME280;6669;42.678;23.332;2022-12-24T02:53:43;94317.94;;;2.67;100.00
13209;BME280;6669;42.678;23.332;2022-12-24T02:56:33;94324.19;;;2.84;100.00
13209;BME280;6669;42.678;23.332;2022-12-24T02:59:19;94314.63;;;2.86;100.00
13209;BME280;6669;42.678;23.332;2022-12-24T03:01:57;94314.28;;;2.59;100.00
13209;BME280;6669;42.678;23.332;2022-12-24T03:04:35;94326.69;;;2.54;100.00
13209;BME280;6669;42.678;23.332;2022-12-24T03:07:25;94331.53;;;2.48;100.00
13209;BME280;6669;42.678;23.332;2022-12-24T03:10:09;94334.22;;;2.15;100.00
13209;BME280;6669;42.678;23.332;2022-12-24T03:12:42;94341.03;;;2.05;100.00
13209;BME280;6669;42.678;23.332;2022-12-24T03:15:14;94341.00;;;1.95;100.00
13209;BME280;6669;42.678;23.332;2022-12-24T03:17:46;94333.75;;;1.79;100.00
13209;BME280;6669;42.678;23.332;2022-12-24T03:20:18;94333.19;;;1.75;100.00
13209;BME280;6669;42.678;23.332;2022-12-24T03:22:49;94337.00;;;1.60;100.00
13209;BME280;6669;42.678;23.332;2022-12-24T03:25:18;94338.94;;;1.46;100.00
13209;BME280;6669;42.678;23.332;2022-12-24T03:27:48;94334.66;;;1.36;100.00
13209;BME280;6669;42.678;23.332;2022-12-24T03:30:17;94335.84;;;1.32;100.00
13209;BME280;6669;42.678;23.332;2022-12-24T03:32:48;94336.41;;;1.35;100.00
13209;BME280;6669;42.678;23.332;2022-12-24T03:35:17;94341.28;;;1.38;100.00
13209;BME280;6669;42.678;23.332;2022-12-24T03:37:46;94330.72;;;1.32;100.00
13209;BME280;6669;42.678;23.332;2022-12-24T03:40:16;94331.75;;;1.40;100.00
13209;BME280;6669;42.678;23.332;2022-12-24T03:42:45;94334.44;;;1.39;100.00
13209;BME280;6669;42.678;23.332;2022-12-24T03:45:15;94333.88;;;1.35;100.00
13209;BME280;6669;42.678;23.332;2022-12-24T03:47:44;94344.41;;;1.42;100.00
13209;BME280;6669;42.678;23.332;2022-12-24T03:50:14;94338.09;;;1.25;100.00
13209;BME280;6669;42.678;23.332;2022-12-24T03:52:42;94329.50;;;1.14;100.00
13209;BME280;6669;42.678;23.332;2022-12-24T03:55:12;94343.41;;;1.33;100.00
13209;BME280;6669;42.678;23.332;2022-12-24T03:57:41;94342.66;;;1.42;100.00
13209;BME280;6669;42.678;23.332;2022-12-24T04:00:10;94345.13;;;1.44;100.00
13209;BME280;6669;42.678;23.332;2022-12-24T04:02:40;94349.72;;;1.50;100.00
13209;BME280;6669;42.678;23.332;2022-12-24T04:05:14;94353.31;;;1.59;100.00
13209;BME280;6669;42.678;23.332;2022-12-24T04:07:44;94362.03;;;1.56;100.00
13209;BME280;6669;42.678;23.332;2022-12-24T04:10:13;94349.94;;;1.58;100.00
13209;BME280;6669;42.678;23.332;2022-12-24T04:12:42;94337.97;;;1.47;100.00
13209;BME280;6669;42.678;23.332;2022-12-24T04:15:12;94362.38;;;1.63;100.00
13209;BME280;6669;42.678;23.332;2022-12-24T04:17:40;94350.91;;;1.25;100.00
13209;BME280;6669;42.678;23.332;2022-12-24T04:20:10;94348.53;;;1.01;100.00
13209;BME280;6669;42.678;23.332;2022-12-24T04:22:40;94360.22;;;1.14;100.00
13209;BME280;6669;42.678;23.332;2022-12-24T04:25:10;94346.63;;;1.14;100.00
13209;BME280;6669;42.678;23.332;2022-12-24T04:27:39;94363.75;;;1.35;100.00
13209;BME280;6669;42.678;23.332;2022-12-24T04:30:09;94367.47;;;1.42;100.00
13209;BME280;6669;42.678;23.332;2022-12-24T04:32:38;94340.09;;;1.21;100.00
13209;BME280;6669;42.678;23.332;2022-12-24T04:35:11;94373.00;;;1.58;100.00
13209;BME280;6669;42.678;23.332;2022-12-24T04:37:50;94378.38;;;1.76;100.00
13209;BME280;6669;42.678;23.332;2022-12-24T04:40:21;94387.56;;;1.79;100.00
13209;BME280;6669;42.678;23.332;2022-12-24T04:42:49;94378.63;;;1.73;100.00
13209;BME280;6669;42.678;23.332;2022-12-24T04:45:17;94378.13;;;1.58;100.00
13209;BME280;6669;42.678;23.332;2022-12-24T04:47:46;94376.84;;;1.53;100.00
13209;BME280;6669;42.678;23.332;2022-12-24T04:50:16;94371.81;;;1.62;100.00
13209;BME280;6669;42.678;23.332;2022-12-24T04:52:46;94351.88;;;1.66;100.00
13209;BME280;6669;42.678;23.332;2022-12-24T04:55:14;94358.31;;;1.60;100.00
13209;BME280;6669;42.678;23.332;2022-12-24T04:57:42;94357.88;;;1.76;100.00
13209;BME280;6669;42.678;23.332;2022-12-24T05:00:18;94370.13;;;1.94;100.00
13209;BME280;6669;42.678;23.332;2022-12-24T05:02:46;94369.56;;;2.11;100.00
13209;BME280;6669;42.678;23.332;2022-12-24T05:05:15;94351.31;;;2.05;100.00
13209;BME280;6669;42.678;23.332;2022-12-24T05:07:43;94363.59;;;2.32;100.00
13209;BME280;6669;42.678;23.332;2022-12-24T05:10:13;94342.16;;;2.33;100.00
13209;BME280;6669;42.678;23.332;2022-12-24T05:12:41;94359.69;;;2.38;100.00
13209;BME280;6669;42.678;23.332;2022-12-24T05:15:10;94342.16;;;2.33;100.00
13209;BME280;6669;42.678;23.332;2022-12-24T05:17:38;94345.78;;;2.31;100.00
13209;BME280;6669;42.678;23.332;2022-12-24T05:20:07;94335.28;;;2.12;100.00
13209;BME280;6669;42.678;23.332;2022-12-24T05:22:35;94342.00;;;2.04;100.00
13209;BME280;6669;42.678;23.332;2022-12-24T05:25:22;94350.94;;;1.88;100.00
13209;BME280;6669;42.678;23.332;2022-12-24T05:28:08;94353.63;;;1.87;100.00
13209;BME280;6669;42.678;23.332;2022-12-24T05:30:36;94352.56;;;1.89;100.00
13209;BME280;6669;42.678;23.332;2022-12-24T05:33:04;94356.13;;;1.56;100.00
13209;BME280;6669;42.678;23.332;2022-12-24T05:35:33;94349.22;;;1.56;100.00
13209;BME280;6669;42.678;23.332;2022-12-24T05:38:01;94364.91;;;1.42;100.00
13209;BME280;6669;42.678;23.332;2022-12-24T05:40:31;94364.91;;;1.42;100.00
13209;BME280;6669;42.678;23.332;2022-12-24T05:43:00;94358.63;;;1.35;100.00
13209;BME280;6669;42.678;23.332;2022-12-24T05:45:29;94339.34;;;1.30;100.00
13209;BME280;6669;42.678;23.332;2022-12-24T05:47:58;94364.25;;;1.28;100.00
13209;BME280;6669;42.678;23.332;2022-12-24T05:50:26;94354.97;;;1.27;100.00
13209;BME280;6669;42.678;23.332;2022-12-24T05:52:55;94351.81;;;1.24;100.00
13209;BME280;6669;42.678;23.332;2022-12-24T05:55:23;94327.41;;;1.20;100.00
13209;BME280;6669;42.678;23.332;2022-12-24T05:57:53;94336.22;;;1.27;100.00
13209;BME280;6669;42.678;23.332;2022-12-24T06:00:21;94353.38;;;1.15;100.00
13209;BME280;6669;42.678;23.332;2022-12-24T06:02:49;94359.25;;;1.27;100.00
13209;BME280;6669;42.678;23.332;2022-12-24T06:05:18;94360.78;;;1.18;100.00
13209;BME280;6669;42.678;23.332;2022-12-24T06:07:46;94356.69;;;1.27;100.00
13209;BME280;6669;42.678;23.332;2022-12-24T06:10:14;94348.38;;;1.13;100.00
13209;BME280;6669;42.678;23.332;2022-12-24T06:12:42;94352.91;;;1.10;100.00
13209;BME280;6669;42.678;23.332;2022-12-24T06:15:13;94346.25;;;1.19;100.00
13209;BME280;6669;42.678;23.332;2022-12-24T06:17:49;94367.19;;;1.24;100.00
13209;BME280;6669;42.678;23.332;2022-12-24T06:20:17;94373.69;;;1.28;100.00
13209;BME280;6669;42.678;23.332;2022-12-24T06:22:46;94375.06;;;1.32;100.00
13209;BME280;6669;42.678;23.332;2022-12-24T06:25:15;94370.69;;;1.23;100.00
13209;BME280;6669;42.678;23.332;2022-12-24T06:27:45;94347.50;;;1.24;100.00
13209;BME280;6669;42.678;23.332;2022-12-24T06:30:15;94359.78;;;1.42;100.00
13209;BME280;6669;42.678;23.332;2022-12-24T06:32:44;94354.97;;;1.49;100.00
13209;BME280;6669;42.678;23.332;2022-12-24T06:35:12;94381.78;;;1.77;100.00
13209;BME280;6669;42.678;23.332;2022-12-24T06:37:41;94391.63;;;1.82;100.00
13209;BME280;6669;42.678;23.332;2022-12-24T06:40:09;94392.47;;;1.82;100.00
13209;BME280;6669;42.678;23.332;2022-12-24T06:42:37;94402.72;;;1.82;100.00
13209;BME280;6669;42.678;23.332;2022-12-24T06:45:06;94403.56;;;1.71;100.00
13209;BME280;6669;42.678;23.332;2022-12-24T06:47:36;94404.97;;;1.64;100.00
13209;BME280;6669;42.678;23.332;2022-12-24T06:50:05;94405.44;;;1.69;100.00
13209;BME280;6669;42.678;23.332;2022-12-24T06:52:34;94411.59;;;1.67;100.00
13209;BME280;6669;42.678;23.332;2022-12-24T06:55:02;94397.25;;;1.75;100.00
13209;BME280;6669;42.678;23.332;2022-12-24T06:57:31;94391.72;;;1.91;100.00
13209;BME280;6669;42.678;23.332;2022-12-24T06:59:59;94406.41;;;2.10;100.00
13209;BME280;6669;42.678;23.332;2022-12-24T07:02:27;94400.97;;;2.04;100.00
13209;BME280;6669;42.678;23.332;2022-12-24T07:04:57;94401.16;;;2.12;100.00
13209;BME280;6669;42.678;23.332;2022-12-24T07:07:26;94405.63;;;2.41;100.00
13209;BME280;6669;42.678;23.332;2022-12-24T07:09:55;94401.50;;;2.50;100.00
13209;BME280;6669;42.678;23.332;2022-12-24T07:12:23;94400.28;;;2.54;100.00
13209;BME280;6669;42.678;23.332;2022-12-24T07:14:51;94398.53;;;2.54;100.00
13209;BME280;6669;42.678;23.332;2022-12-24T07:17:19;94409.97;;;2.71;100.00
13209;BME280;6669;42.678;23.332;2022-12-24T07:19:48;94403.00;;;2.62;100.00
13209;BME280;6669;42.678;23.332;2022-12-24T07:22:18;94397.38;;;2.68;100.00
13209;BME280;6669;42.678;23.332;2022-12-24T07:24:46;94405.66;;;2.82;100.00
13209;BME280;6669;42.678;23.332;2022-12-24T07:27:15;94412.03;;;2.87;100.00
13209;BME280;6669;42.678;23.332;2022-12-24T07:29:43;94409.22;;;3.00;100.00
13209;BME280;6669;42.678;23.332;2022-12-24T07:32:11;94401.00;;;3.06;100.00
13209;BME280;6669;42.678;23.332;2022-12-24T07:34:39;94393.16;;;2.98;100.00
13209;BME280;6669;42.678;23.332;2022-12-24T07:37:08;94417.28;;;3.26;100.00
13209;BME280;6669;42.678;23.332;2022-12-24T07:39:37;94396.44;;;3.20;100.00
13209;BME280;6669;42.678;23.332;2022-12-24T07:42:05;94417.97;;;3.38;100.00
13209;BME280;6669;42.678;23.332;2022-12-24T07:44:34;94418.13;;;3.47;100.00
13209;BME280;6669;42.678;23.332;2022-12-24T07:47:12;94405.13;;;3.48;100.00
13209;BME280;6669;42.678;23.332;2022-12-24T07:49:41;94413.13;;;3.55;100.00
13209;BME280;6669;42.678;23.332;2022-12-24T07:52:09;94421.22;;;3.60;100.00
13209;BME280;6669;42.678;23.332;2022-12-24T07:54:38;94426.41;;;3.80;100.00
13209;BME280;6669;42.678;23.332;2022-12-24T07:57:08;94434.53;;;3.85;100.00
13209;BME280;6669;42.678;23.332;2022-12-24T07:59:36;94430.06;;;3.77;100.00
13209;BME280;6669;42.678;23.332;2022-12-24T08:02:04;94439.38;;;3.98;100.00
13209;BME280;6669;42.678;23.332;2022-12-24T08:04:39;94441.28;;;4.05;100.00
13209;BME280;6669;42.678;23.332;2022-12-24T08:07:11;94421.78;;;4.03;100.00
13209;BME280;6669;42.678;23.332;2022-12-24T08:09:41;94457.78;;;4.22;100.00
13209;BME280;6669;42.678;23.332;2022-12-24T08:12:11;94460.75;;;4.37;100.00
13209;BME280;6669;42.678;23.332;2022-12-24T08:14:39;94461.81;;;4.45;100.00
13209;BME280;6669;42.678;23.332;2022-12-24T08:17:07;94477.38;;;4.53;100.00
13209;BME280;6669;42.678;23.332;2022-12-24T08:19:36;94474.00;;;4.52;100.00
13209;BME280;6669;42.678;23.332;2022-12-24T08:22:04;94470.97;;;4.67;100.00
13209;BME280;6669;42.678;23.332;2022-12-24T08:24:32;94469.34;;;4.66;100.00
13209;BME280;6669;42.678;23.332;2022-12-24T08:27:02;94462.06;;;4.61;100.00
13209;BME280;6669;42.678;23.332;2022-12-24T08:29:30;94467.06;;;4.72;100.00
13209;BME280;6669;42.678;23.332;2022-12-24T08:31:58;94456.91;;;4.61;100.00
13209;BME280;6669;42.678;23.332;2022-12-24T08:34:27;94456.31;;;4.77;100.00
13209;BME280;6669;42.678;23.332;2022-12-24T08:36:55;94445.91;;;4.79;100.00
13209;BME280;6669;42.678;23.332;2022-12-24T08:39:24;94455.72;;;4.93;100.00
13209;BME280;6669;42.678;23.332;2022-12-24T08:41:52;94442.28;;;4.99;100.00
13209;BME280;6669;42.678;23.332;2022-12-24T08:44:22;94436.44;;;5.07;100.00
13209;BME280;6669;42.678;23.332;2022-12-24T08:46:51;94445.97;;;5.24;100.00
13209;BME280;6669;42.678;23.332;2022-12-24T08:49:19;94449.88;;;5.29;100.00
13209;BME280;6669;42.678;23.332;2022-12-24T08:51:47;94444.97;;;5.35;100.00
13209;BME280;6669;42.678;23.332;2022-12-24T08:54:15;94455.03;;;5.29;100.00
13209;BME280;6669;42.678;23.332;2022-12-24T08:56:44;94471.56;;;5.36;100.00
13209;BME280;6669;42.678;23.332;2022-12-24T08:59:12;94481.78;;;5.18;100.00
13209;BME280;6669;42.678;23.332;2022-12-24T09:01:42;94475.13;;;5.25;100.00
13209;BME280;6669;42.678;23.332;2022-12-24T09:04:12;94485.06;;;5.10;100.00
13209;BME280;6669;42.678;23.332;2022-12-24T09:06:40;94464.97;;;5.23;100.00
13209;BME280;6669;42.678;23.332;2022-12-24T09:09:08;94463.16;;;5.34;100.00
13209;BME280;6669;42.678;23.332;2022-12-24T09:11:36;94447.91;;;5.13;100.00
13209;BME280;6669;42.678;23.332;2022-12-24T09:14:04;94460.72;;;5.32;100.00
13209;BME280;6669;42.678;23.332;2022-12-24T09:16:33;94444.69;;;5.38;100.00
13209;BME280;6669;42.678;23.332;2022-12-24T09:19:03;94466.34;;;5.64;100.00
13209;BME280;6669;42.678;23.332;2022-12-24T09:21:32;94472.28;;;5.74;100.00
13209;BME280;6669;42.678;23.332;2022-12-24T09:24:03;94457.47;;;5.76;100.00
13209;BME280;6669;42.678;23.332;2022-12-24T09:26:32;94443.41;;;5.88;100.00
13209;BME280;6669;42.678;23.332;2022-12-24T09:29:02;94452.69;;;5.99;100.00
13209;BME280;6669;42.678;23.332;2022-12-24T09:31:34;94461.03;;;5.93;100.00
13209;BME280;6669;42.678;23.332;2022-12-24T09:34:04;94459.56;;;6.09;100.00
13209;BME280;6669;42.678;23.332;2022-12-24T09:36:32;94460.22;;;6.11;100.00
13209;BME280;6669;42.678;23.332;2022-12-24T09:39:00;94462.75;;;6.02;100.00
13209;BME280;6669;42.678;23.332;2022-12-24T09:41:40;94462.06;;;6.00;100.00
13209;BME280;6669;42.678;23.332;2022-12-24T09:44:20;94451.41;;;5.85;100.00
13209;BME280;6669;42.678;23.332;2022-12-24T09:46:52;94454.66;;;5.87;100.00
13209;BME280;6669;42.678;23.332;2022-12-24T09:49:25;94462.56;;;5.86;100.00
13209;BME280;6669;42.678;23.332;2022-12-24T09:52:00;94454.88;;;5.76;100.00
13209;BME280;6669;42.678;23.332;2022-12-24T09:54:34;94452.09;;;5.69;100.00
13209;BME280;6669;42.678;23.332;2022-12-24T09:57:05;94455.56;;;5.78;100.00
13209;BME280;6669;42.678;23.332;2022-12-24T09:59:40;94445.75;;;5.82;100.00
13209;BME280;6669;42.678;23.332;2022-12-24T10:02:11;94462.25;;;5.89;100.00
13209;BME280;6669;42.678;23.332;2022-12-24T10:04:43;94462.84;;;5.83;100.00
13209;BME280;6669;42.678;23.332;2022-12-24T10:07:24;94461.00;;;5.75;100.00
13209;BME280;6669;42.678;23.332;2022-12-24T10:10:03;94457.97;;;5.62;100.00
13209;BME280;6669;42.678;23.332;2022-12-24T10:12:37;94450.81;;;5.55;100.00
13209;BME280;6669;42.678;23.332;2022-12-24T10:15:21;94444.78;;;5.65;100.00
13209;BME280;6669;42.678;23.332;2022-12-24T10:18:06;94448.84;;;5.67;100.00
13209;BME280;6669;42.678;23.332;2022-12-24T10:20:45;94441.34;;;5.74;100.00
13209;BME280;6669;42.678;23.332;2022-12-24T10:23:22;94433.28;;;5.95;100.00
13209;BME280;6669;42.678;23.332;2022-12-24T10:26:07;94436.78;;;6.04;100.00
13209;BME280;6669;42.678;23.332;2022-12-24T10:28:42;94442.69;;;6.14;100.00
13209;BME280;6669;42.678;23.332;2022-12-24T10:31:13;94442.16;;;6.29;100.00
13209;BME280;6669;42.678;23.332;2022-12-24T10:33:44;94432.84;;;6.36;100.00
13209;BME280;6669;42.678;23.332;2022-12-24T10:36:20;94445.56;;;6.56;100.00
13209;BME280;6669;42.678;23.332;2022-12-24T10:38:50;94446.13;;;6.67;100.00
13209;BME280;6669;42.678;23.332;2022-12-24T10:41:18;94430.97;;;6.73;100.00
13209;BME280;6669;42.678;23.332;2022-12-24T10:43:48;94416.00;;;6.76;100.00
13209;BME280;6669;42.678;23.332;2022-12-24T10:46:20;94430.28;;;6.97;100.00
13209;BME280;6669;42.678;23.332;2022-12-24T10:48:52;94418.34;;;6.96;100.00
13209;BME280;6669;42.678;23.332;2022-12-24T10:51:31;94416.41;;;6.98;100.00
13209;BME280;6669;42.678;23.332;2022-12-24T10:54:06;94434.78;;;6.95;100.00
13209;BME280;6669;42.678;23.332;2022-12-24T10:56:39;94440.31;;;7.00;100.00
13209;BME280;6669;42.678;23.332;2022-12-24T10:59:23;94425.56;;;6.92;100.00
13209;BME280;6669;42.678;23.332;2022-12-24T11:01:53;94433.53;;;6.99;100.00
13209;BME280;6669;42.678;23.332;2022-12-24T11:04:24;94436.91;;;6.91;100.00
13209;BME280;6669;42.678;23.332;2022-12-24T11:06:58;94439.84;;;6.96;100.00
13209;BME280;6669;42.678;23.332;2022-12-24T11:09:28;94444.00;;;6.97;100.00
13209;BME280;6669;42.678;23.332;2022-12-24T11:11:58;94442.59;;;7.03;100.00
13209;BME280;6669;42.678;23.332;2022-12-24T11:14:36;94433.31;;;6.92;100.00
13209;BME280;6669;42.678;23.332;2022-12-24T11:17:18;94424.13;;;6.90;100.00
13209;BME280;6669;42.678;23.332;2022-12-24T11:19:49;94409.63;;;6.97;100.00
13209;BME280;6669;42.678;23.332;2022-12-24T11:22:22;94429.34;;;7.06;100.00
13209;BME280;6669;42.678;23.332;2022-12-24T11:25:02;94418.88;;;7.08;100.00
13209;BME280;6669;42.678;23.332;2022-12-24T11:27:39;94424.31;;;7.39;100.00
13209;BME280;6669;42.678;23.332;2022-12-24T11:30:28;94433.25;;;7.53;100.00
13209;BME280;6669;42.678;23.332;2022-12-24T11:33:15;94435.91;;;7.78;100.00
13209;BME280;6669;42.678;23.332;2022-12-24T11:35:50;94446.13;;;8.21;100.00
13209;BME280;6669;42.678;23.332;2022-12-24T11:38:22;94440.00;;;8.63;100.00
13209;BME280;6669;42.678;23.332;2022-12-24T11:41:00;94436.28;;;9.22;100.00
13209;BME280;6669;42.678;23.332;2022-12-24T11:43:35;94437.78;;;10.02;100.00
13209;BME280;6669;42.678;23.332;2022-12-24T11:46:34;94432.31;;;10.96;100.00
13209;BME280;6669;42.678;23.332;2022-12-24T11:49:05;94438.56;;;11.17;100.00
13209;BME280;6669;42.678;23.332;2022-12-24T11:51:56;94433.03;;;11.05;100.00
13209;BME280;6669;42.678;23.332;2022-12-24T11:54:31;94422.44;;;10.77;100.00
13209;BME280;6669;42.678;23.332;2022-12-24T11:57:02;94435.47;;;10.54;100.00
13209;BME280;6669;42.678;23.332;2022-12-24T11:59:35;94422.03;;;10.04;100.00
13209;BME280;6669;42.678;23.332;2022-12-24T12:02:17;94429.25;;;9.93;100.00
13209;BME280;6669;42.678;23.332;2022-12-24T12:04:50;94410.78;;;9.88;100.00
13209;BME280;6669;42.678;23.332;2022-12-24T12:07:23;94418.09;;;10.08;100.00
13209;BME280;6669;42.678;23.332;2022-12-24T12:09:56;94414.69;;;10.30;100.00
13209;BME280;6669;42.678;23.332;2022-12-24T12:12:27;94415.31;;;10.56;100.00
13209;BME280;6669;42.678;23.332;2022-12-24T12:14:59;94409.84;;;10.51;100.00
13209;BME280;6669;42.678;23.332;2022-12-24T12:17:31;94411.16;;;10.85;100.00
13209;BME280;6669;42.678;23.332;2022-12-24T12:20:05;94419.31;;;11.11;100.00
13209;BME280;6669;42.678;23.332;2022-12-24T12:22:44;94419.56;;;11.17;100.00
13209;BME280;6669;42.678;23.332;2022-12-24T12:25:20;94426.19;;;10.89;100.00
13209;BME280;6669;42.678;23.332;2022-12-24T12:27:52;94427.78;;;10.75;100.00
13209;BME280;6669;42.678;23.332;2022-12-24T12:30:23;94422.97;;;10.72;100.00
13209;BME280;6669;42.678;23.332;2022-12-24T12:32:57;94415.72;;;10.44;100.00
13209;BME280;6669;42.678;23.332;2022-12-24T12:35:30;94428.53;;;10.46;100.00
13209;BME280;6669;42.678;23.332;2022-12-24T12:38:03;94414.25;;;10.65;100.00
13209;BME280;6669;42.678;23.332;2022-12-24T12:40:48;94416.59;;;10.75;100.00
13209;BME280;6669;42.678;23.332;2022-12-24T12:43:34;94419.75;;;11.00;100.00
13209;BME280;6669;42.678;23.332;2022-12-24T12:46:12;94413.38;;;11.18;100.00
13209;BME280;6669;42.678;23.332;2022-12-24T12:49:06;94415.28;;;11.24;100.00
13209;BME280;6669;42.678;23.332;2022-12-24T12:51:42;94411.38;;;11.20;100.00
13209;BME280;6669;42.678;23.332;2022-12-24T12:54:28;94427.63;;;10.92;100.00
13209;BME280;6669;42.678;23.332;2022-12-24T12:57:03;94439.63;;;10.63;100.00
13209;BME280;6669;42.678;23.332;2022-12-24T12:59:35;94440.94;;;10.44;100.00
13209;BME280;6669;42.678;23.332;2022-12-24T13:02:22;94440.78;;;10.14;100.00
13209;BME280;6669;42.678;23.332;2022-12-24T13:05:09;94447.25;;;9.95;100.00
13209;BME280;6669;42.678;23.332;2022-12-24T13:08:12;94445.44;;;9.72;100.00
13209;BME280;6669;42.678;23.332;2022-12-24T13:10:57;94449.81;;;9.40;100.00
13209;BME280;6669;42.678;23.332;2022-12-24T13:13:49;94444.66;;;9.32;100.00
13209;BME280;6669;42.678;23.332;2022-12-24T13:19:35;94450.44;;;9.03;100.00
13209;BME280;6669;42.678;23.332;2022-12-24T13:22:14;94457.59;;;8.92;100.00
13209;BME280;6669;42.678;23.332;2022-12-24T13:24:47;94476.72;;;8.91;100.00
13209;BME280;6669;42.678;23.332;2022-12-24T13:27:20;94468.81;;;8.68;100.00
13209;BME280;6669;42.678;23.332;2022-12-24T13:29:53;94466.34;;;8.83;100.00
13209;BME280;6669;42.678;23.332;2022-12-24T13:32:48;94472.19;;;8.69;100.00
13209;BME280;6669;42.678;23.332;2022-12-24T13:35:38;94470.75;;;8.49;100.00